createdAt,value
2022-08-02T00:02:08.734Z,4.03
2022-08-02T00:05:14.379Z,3.67
2022-08-02T00:08:17.424Z,3.60
2022-08-02T00:11:20.766Z,4.30
2022-08-02T00:14:23.662Z,4.17
2022-08-02T00:17:27.156Z,4.30
2022-08-02T00:20:31.547Z,3.73
2022-08-02T00:23:34.794Z,3.97
2022-08-02T00:26:57.566Z,3.93
2022-08-02T00:30:00.825Z,3.80
2022-08-02T00:33:05.562Z,3.57
2022-08-02T00:36:10.167Z,3.70
2022-08-02T00:39:33.490Z,3.53
2022-08-02T00:42:36.097Z,4.20
2022-08-02T00:46:03.416Z,4.37
2022-08-02T00:49:04.827Z,4.30
2022-08-02T00:52:11.150Z,4.60
2022-08-02T00:55:17.373Z,4.27
2022-08-02T00:58:21.827Z,4.20
2022-08-02T01:01:38.843Z,4.50
2022-08-02T01:05:01.010Z,4.07
2022-08-02T01:08:05.356Z,3.93
2022-08-02T01:11:08.559Z,4.30
2022-08-02T01:14:15.152Z,4.23
2022-08-02T01:17:24.541Z,4.70
2022-08-02T01:20:54.630Z,4.73
2022-08-02T01:24:18.323Z,4.40
2022-08-02T01:27:41.525Z,4.07
2022-08-02T01:30:48.975Z,4.33
2022-08-02T01:34:00.499Z,4.97
2022-08-02T01:37:07.112Z,5.20
2022-08-02T01:40:13.424Z,5.00
2022-08-02T01:43:18.360Z,4.87
2022-08-02T01:46:24.615Z,4.70
2022-08-02T01:49:31.254Z,4.80
2022-08-02T01:52:38.561Z,4.23
2022-08-02T01:55:57.753Z,4.90
2022-08-02T01:59:03.161Z,4.60
2022-08-02T02:02:09.878Z,4.87
2022-08-02T02:05:15.845Z,5.60
2022-08-02T02:08:27.311Z,5.93
2022-08-02T02:12:09.627Z,5.03
2022-08-02T02:14:55.760Z,5.40
2022-08-02T02:18:13.066Z,5.00
2022-08-02T02:21:17.123Z,5.30
2022-08-02T02:24:19.906Z,5.20
2022-08-02T02:27:25.184Z,4.50
2022-08-02T02:30:30.374Z,4.90
2022-08-02T02:33:36.428Z,5.20
2022-08-02T02:36:41.307Z,5.23
2022-08-02T02:39:46.039Z,5.20
2022-08-02T02:42:49.873Z,5.20
2022-08-02T02:45:54.111Z,5.20
2022-08-02T02:48:59.856Z,5.23
2022-08-02T02:52:04.020Z,5.20
2022-08-02T02:55:11.513Z,5.30
2022-08-02T02:58:14.979Z,5.13
2022-08-02T03:01:53.117Z,4.63
2022-08-02T03:04:58.272Z,5.77
2022-08-02T03:08:01.608Z,5.43
2022-08-02T03:11:05.261Z,5.40
2022-08-02T03:14:12.449Z,5.70
2022-08-02T03:17:16.461Z,5.63
2022-08-02T03:20:23.010Z,6.13
2022-08-02T03:23:25.717Z,5.57
2022-08-02T03:26:28.865Z,4.97
2022-08-02T03:29:34.656Z,5.03
2022-08-02T03:32:40.088Z,5.07
2022-08-02T03:35:45.048Z,4.50
2022-08-02T03:38:48.925Z,4.90
2022-08-02T03:41:52.272Z,4.73
2022-08-02T03:44:57.562Z,5.20
2022-08-02T03:48:01.115Z,5.87
2022-08-02T03:51:07.373Z,6.13
2022-08-02T03:54:11.313Z,5.60
2022-08-02T03:57:15.452Z,5.00
2022-08-02T04:00:21.334Z,5.53
2022-08-02T04:03:24.011Z,5.10
2022-08-02T04:06:28.610Z,5.50
2022-08-02T04:09:31.978Z,4.70
2022-08-02T04:12:34.968Z,4.90
2022-08-02T04:15:39.651Z,5.17
2022-08-02T04:18:50.592Z,4.97
2022-08-02T04:21:55.910Z,4.30
2022-08-02T04:25:03.091Z,5.10
2022-08-02T04:28:16.675Z,5.03
2022-08-02T04:31:21.681Z,4.90
2022-08-02T04:34:24.607Z,4.80
2022-08-02T04:37:30.746Z,4.50
2022-08-02T04:40:34.014Z,4.43
2022-08-02T04:43:36.839Z,5.13
2022-08-02T04:46:41.022Z,4.67
2022-08-02T04:49:43.904Z,4.60
2022-08-02T04:52:48.557Z,5.00
2022-08-02T04:55:51.478Z,4.90
2022-08-02T04:58:56.032Z,4.67
2022-08-02T05:01:58.703Z,4.70
2022-08-02T05:05:04.610Z,4.63
2022-08-02T05:08:11.381Z,4.53
2022-08-02T05:11:14.528Z,5.07
2022-08-02T05:14:17.417Z,4.73
2022-08-02T05:17:20.672Z,4.90
2022-08-02T05:20:23.402Z,4.63
2022-08-02T05:23:27.535Z,5.10
2022-08-02T05:26:31.065Z,11.13
2022-08-02T05:29:34.137Z,5.67
2022-08-02T05:32:43.358Z,5.10
2022-08-02T05:35:48.548Z,5.07
2022-08-02T05:38:53.232Z,5.37
2022-08-02T05:42:05.909Z,4.73
2022-08-02T05:45:15.416Z,5.07
2022-08-02T05:48:27.817Z,5.23
2022-08-02T05:51:41.820Z,4.87
2022-08-02T05:54:55.994Z,5.43
2022-08-02T05:58:07.365Z,4.57
2022-08-02T06:01:19.027Z,4.57
2022-08-02T06:04:27.645Z,5.10
2022-08-02T06:07:32.257Z,4.03
2022-08-02T06:10:40.710Z,4.20
2022-08-02T06:13:49.232Z,4.10
2022-08-02T06:16:54.741Z,3.43
2022-08-02T06:19:58.889Z,3.90
2022-08-02T06:23:02.915Z,3.93
2022-08-02T06:26:10.325Z,3.60
2022-08-02T06:29:14.110Z,3.70
2022-08-02T06:32:19.451Z,3.63
2022-08-02T06:35:22.890Z,3.60
2022-08-02T06:38:30.104Z,3.90
2022-08-02T06:41:43.642Z,3.70
2022-08-02T06:44:48.714Z,6.87
2022-08-02T06:47:52.984Z,4.97
2022-08-02T06:50:55.764Z,4.37
2022-08-02T06:53:58.513Z,4.20
2022-08-02T06:57:03.040Z,5.10
2022-08-02T07:00:09.487Z,4.30
2022-08-02T07:03:12.518Z,4.30
2022-08-02T07:06:15.841Z,3.90
2022-08-02T07:09:21.017Z,3.60
2022-08-02T07:12:26.176Z,3.60
2022-08-02T07:15:29.069Z,3.57
2022-08-02T07:18:32.589Z,3.67
2022-08-02T07:21:56.947Z,3.40
2022-08-02T07:25:00.942Z,3.00
2022-08-02T07:28:05.842Z,3.20
2022-08-02T07:31:08.559Z,3.00
2022-08-02T07:34:11.496Z,2.83
2022-08-02T07:37:35.992Z,3.33
2022-08-02T07:40:37.926Z,2.40
2022-08-02T07:43:43.892Z,2.80
2022-08-02T07:46:47.227Z,2.67
2022-08-02T07:49:50.477Z,2.27
2022-08-02T07:52:57.280Z,2.10
2022-08-02T07:56:00.857Z,2.03
2022-08-02T07:59:05.025Z,2.20
2022-08-02T08:02:08.457Z,2.20
2022-08-02T08:05:12.022Z,2.23
2022-08-02T08:08:17.564Z,1.80
2022-08-02T08:11:20.599Z,1.50
2022-08-02T08:14:24.668Z,1.37
2022-08-02T08:17:27.483Z,1.90
2022-08-02T08:20:30.752Z,1.60
2022-08-02T08:23:34.011Z,1.50
2022-08-02T08:26:36.723Z,1.70
2022-08-02T08:29:41.626Z,1.80
2022-08-02T08:32:44.473Z,1.90
2022-08-02T08:35:48.215Z,1.60
2022-08-02T08:38:51.184Z,1.57
2022-08-02T08:41:53.886Z,1.70
2022-08-02T08:44:58.598Z,1.63
2022-08-02T08:48:02.933Z,1.50
2022-08-02T08:51:09.017Z,1.73
2022-08-02T08:54:16.319Z,1.40
2022-08-02T08:57:20.669Z,2.00
2022-08-02T09:00:24.822Z,1.70
2022-08-02T09:03:27.533Z,1.80
2022-08-02T09:06:36.829Z,1.40
2022-08-02T09:09:39.680Z,1.70
2022-08-02T09:12:42.429Z,1.40
2022-08-02T09:15:53.931Z,1.60
2022-08-02T09:18:57.007Z,1.70
2022-08-02T09:22:03.891Z,1.60
2022-08-02T09:25:16.630Z,1.33
2022-08-02T09:28:19.780Z,1.60
2022-08-02T09:31:25.097Z,1.40
2022-08-02T09:34:44.206Z,1.60
2022-08-02T09:37:48.716Z,1.40
2022-08-02T09:40:51.459Z,1.40
2022-08-02T09:44:05.260Z,1.40
2022-08-02T09:47:17.647Z,1.43
2022-08-02T09:50:20.594Z,1.30
2022-08-02T09:53:24.895Z,1.20
2022-08-02T09:56:40.826Z,1.50
2022-08-02T09:59:54.571Z,1.30
2022-08-02T10:03:22.248Z,1.20
2022-08-02T10:06:26.263Z,1.33
2022-08-02T10:09:29.706Z,1.70
2022-08-02T10:12:32.734Z,1.10
2022-08-02T10:15:36.240Z,1.37
2022-08-02T10:18:41.448Z,1.10
2022-08-02T10:21:48.230Z,1.20
2022-08-02T10:24:53.129Z,1.20
2022-08-02T10:28:05.239Z,1.30
2022-08-02T10:31:11.138Z,1.00
2022-08-02T10:34:19.894Z,1.40
2022-08-02T10:37:31.120Z,1.30
2022-08-02T10:40:45.339Z,1.20
2022-08-02T10:43:51.289Z,1.57
2022-08-02T10:47:15.236Z,1.00
2022-08-02T10:50:19.572Z,1.30
2022-08-02T10:53:27.109Z,1.20
2022-08-02T10:56:47.661Z,0.93
2022-08-02T10:59:53.032Z,1.00
2022-08-02T11:02:55.892Z,1.30
2022-08-02T11:06:05.428Z,1.10
2022-08-02T11:09:31.981Z,1.20
2022-08-02T11:13:03.480Z,1.20
2022-08-02T11:16:11.490Z,1.13
2022-08-02T11:19:15.164Z,1.40
2022-08-02T11:22:25.210Z,1.20
2022-08-02T11:26:00.966Z,1.23
2022-08-02T11:28:57.253Z,1.30
2022-08-02T11:32:00.183Z,1.10
2022-08-02T11:35:04.353Z,1.20
2022-08-02T11:38:16.559Z,1.00
2022-08-02T11:41:47.000Z,1.40
2022-08-02T11:44:43.662Z,1.23
2022-08-02T11:47:47.437Z,1.20
2022-08-02T11:51:04.136Z,1.30
2022-08-02T11:54:08.545Z,1.30
2022-08-02T11:57:18.509Z,1.10
2022-08-02T12:00:23.500Z,1.13
2022-08-02T12:03:36.659Z,1.20
2022-08-02T12:06:39.474Z,1.42
2022-08-02T12:09:44.345Z,1.10
2022-08-02T12:12:51.796Z,1.13
2022-08-02T12:16:16.592Z,1.02
2022-08-02T12:19:19.199Z,1.30
2022-08-02T12:22:27.255Z,1.20
2022-08-02T12:25:34.694Z,1.42
2022-08-02T12:28:40.472Z,1.40
2022-08-02T12:31:57.593Z,1.27
2022-08-02T12:35:10.476Z,1.20
2022-08-02T12:38:13.879Z,1.17
2022-08-02T12:41:30.899Z,1.30
2022-08-02T12:44:37.111Z,1.20
2022-08-02T12:47:48.825Z,1.15
2022-08-02T12:50:51.789Z,1.30
2022-08-02T12:53:59.965Z,1.10
2022-08-02T12:57:12.728Z,1.23
2022-08-02T13:00:24.519Z,1.02
2022-08-02T13:04:10.851Z,1.30
2022-08-02T13:06:50.479Z,1.40
2022-08-02T13:10:02.651Z,1.20
2022-08-02T13:13:07.623Z,1.05
2022-08-02T13:16:11.725Z,1.00
2022-08-02T13:19:15.941Z,1.10
2022-08-02T13:22:19.226Z,1.20
2022-08-02T13:25:23.271Z,1.30
2022-08-02T13:28:27.917Z,1.20
2022-08-02T13:31:36.609Z,1.20
2022-08-02T13:34:40.063Z,1.25
2022-08-02T13:37:43.059Z,1.25
2022-08-02T13:41:04.830Z,1.33
2022-08-02T13:44:10.931Z,1.17
2022-08-02T13:47:13.967Z,1.20
2022-08-02T13:50:17.472Z,1.30
2022-08-02T13:53:20.356Z,1.20
2022-08-02T13:56:35.487Z,1.23
2022-08-02T13:59:57.199Z,1.20
2022-08-02T14:03:01.602Z,1.20
2022-08-02T14:06:06.696Z,0.95
2022-08-02T14:09:09.596Z,1.13
2022-08-02T14:12:18.411Z,1.20
2022-08-02T14:15:22.875Z,1.23
2022-08-02T14:18:25.577Z,1.13
2022-08-02T14:21:28.328Z,1.17
2022-08-02T14:24:31.948Z,1.30
2022-08-02T14:27:38.663Z,1.20
2022-08-02T14:30:44.054Z,1.20
2022-08-02T14:33:46.789Z,1.10
2022-08-02T14:36:53.644Z,1.30
2022-08-02T14:40:00.532Z,1.25
2022-08-02T14:43:04.496Z,1.50
2022-08-02T14:46:09.404Z,1.27
2022-08-02T14:49:14.619Z,1.70
2022-08-02T14:52:27.073Z,1.35
2022-08-02T14:55:29.791Z,1.25
2022-08-02T14:58:32.758Z,1.20
2022-08-02T15:01:37.663Z,1.15
2022-08-02T15:04:42.656Z,1.20
2022-08-02T15:07:49.517Z,1.20
2022-08-02T15:10:52.568Z,1.20
2022-08-02T15:13:55.246Z,1.20
2022-08-02T15:17:03.036Z,1.13
2022-08-02T15:20:25.843Z,1.15
2022-08-02T15:23:37.575Z,1.30
2022-08-02T15:26:41.327Z,1.02
2022-08-02T15:29:45.897Z,1.10
2022-08-02T15:32:53.008Z,1.10
2022-08-02T15:35:56.434Z,1.30
2022-08-02T15:38:59.257Z,1.10
2022-08-02T15:42:02.058Z,1.30
2022-08-02T15:45:05.493Z,1.30
2022-08-02T15:48:09.714Z,1.30
2022-08-02T15:51:12.496Z,1.10
2022-08-02T15:54:15.240Z,1.20
2022-08-02T15:57:17.916Z,0.98
2022-08-02T16:00:22.417Z,1.40
2022-08-02T16:03:26.424Z,1.30
2022-08-02T16:06:29.421Z,1.17
2022-08-02T16:09:32.482Z,1.30
2022-08-02T16:12:35.157Z,1.05
2022-08-02T16:15:38.346Z,1.30
2022-08-02T16:18:42.537Z,1.20
2022-08-02T16:21:45.384Z,1.35
2022-08-02T16:24:48.341Z,1.60
2022-08-02T16:27:57.865Z,1.30
2022-08-02T16:31:11.652Z,1.40
2022-08-02T16:34:15.963Z,1.40
2022-08-02T16:37:18.653Z,1.30
2022-08-02T16:40:22.100Z,1.33
2022-08-02T16:43:25.165Z,1.30
2022-08-02T16:46:30.356Z,1.30
2022-08-02T16:50:04.699Z,1.30
2022-08-02T16:52:58.870Z,2.15
2022-08-02T16:56:01.804Z,1.40
2022-08-02T16:59:04.677Z,1.20
2022-08-02T17:02:18.358Z,1.58
2022-08-02T17:05:24.122Z,1.30
2022-08-02T17:08:40.489Z,1.48
2022-08-02T17:11:57.868Z,1.40
2022-08-02T17:16:08.351Z,1.40
2022-08-02T17:18:26.749Z,1.30
2022-08-02T17:21:31.852Z,1.40
2022-08-02T17:24:34.731Z,1.33
2022-08-02T17:27:37.698Z,1.23
2022-08-02T17:30:40.759Z,1.50
2022-08-02T17:33:43.696Z,1.40
2022-08-02T17:36:49.749Z,1.20
2022-08-02T17:39:52.611Z,1.40
2022-08-02T17:42:55.729Z,1.20
2022-08-02T17:46:02.630Z,1.23
2022-08-02T17:49:20.633Z,1.30
2022-08-02T17:52:51.281Z,1.30
2022-08-02T17:55:50.937Z,1.48
2022-08-02T17:58:54.143Z,1.40
2022-08-02T18:01:58.679Z,1.27
2022-08-02T18:05:11.865Z,1.50
2022-08-02T18:08:21.285Z,1.47
2022-08-02T18:11:52.014Z,1.50
2022-08-02T18:14:49.344Z,1.33
2022-08-02T18:17:54.724Z,1.50
2022-08-02T18:21:15.994Z,1.40
2022-08-02T18:24:25.819Z,1.37
2022-08-02T18:27:31.588Z,1.50
2022-08-02T18:30:35.625Z,1.70
2022-08-02T18:34:00.517Z,1.50
2022-08-02T18:37:01.825Z,1.40
2022-08-02T18:40:07.013Z,1.53
2022-08-02T18:43:09.821Z,1.57
2022-08-02T18:46:20.208Z,1.53
2022-08-02T18:49:24.059Z,1.33
2022-08-02T18:52:32.838Z,1.70
2022-08-02T18:55:59.817Z,1.73
2022-08-02T18:59:02.927Z,1.67
2022-08-02T19:02:06.033Z,1.83
2022-08-02T19:05:10.492Z,2.00
2022-08-02T19:08:13.200Z,1.37
2022-08-02T19:11:17.216Z,1.70
2022-08-02T19:14:27.512Z,1.67
2022-08-02T19:17:55.317Z,1.70
2022-08-02T19:20:53.661Z,1.70
2022-08-02T19:23:56.779Z,1.60
2022-08-02T19:27:13.361Z,1.70
2022-08-02T19:30:19.550Z,1.53
2022-08-02T19:33:54.380Z,1.80
2022-08-02T19:36:47.569Z,1.90
2022-08-02T19:39:50.525Z,2.00
2022-08-02T19:44:21.767Z,2.07
2022-08-02T19:46:20.632Z,1.87
2022-08-02T19:49:39.717Z,1.70
2022-08-02T19:52:43.930Z,2.20
2022-08-02T19:55:58.342Z,2.27
2022-08-02T19:59:12.990Z,1.90
2022-08-02T20:02:18.349Z,2.30
2022-08-02T20:05:24.068Z,2.20
2022-08-02T20:08:31.725Z,1.77
2022-08-02T20:11:38.709Z,1.60
2022-08-02T20:14:51.239Z,2.10
2022-08-02T20:17:54.439Z,1.73
2022-08-02T20:20:57.303Z,1.57
2022-08-02T20:24:00.241Z,2.07
2022-08-02T20:27:04.458Z,1.80
2022-08-02T20:30:09.660Z,1.90
2022-08-02T20:33:21.758Z,1.80
2022-08-02T20:36:25.574Z,2.00
2022-08-02T20:39:43.461Z,1.83
2022-08-02T20:42:47.797Z,2.03
2022-08-02T20:45:52.441Z,2.00
2022-08-02T20:48:59.475Z,2.10
2022-08-02T20:52:23.851Z,2.00
2022-08-02T20:55:30.841Z,1.87
2022-08-02T20:58:34.336Z,1.90
2022-08-02T21:01:38.925Z,1.70
2022-08-02T21:04:42.637Z,1.80
2022-08-02T21:07:47.828Z,1.80
2022-08-02T21:10:57.037Z,1.77
2022-08-02T21:14:08.544Z,1.90
2022-08-02T21:17:17.986Z,2.13
2022-08-02T21:20:27.464Z,2.10
2022-08-02T21:23:36.654Z,2.03
2022-08-02T21:26:39.478Z,1.83
2022-08-02T21:29:43.581Z,1.60
2022-08-02T21:32:50.560Z,1.80
2022-08-02T21:35:54.398Z,2.00
2022-08-02T21:38:57.939Z,1.97
2022-08-02T21:42:00.705Z,2.13
2022-08-02T21:45:16.863Z,1.90
2022-08-02T21:48:21.883Z,1.83
2022-08-02T21:51:29.302Z,2.00
2022-08-02T21:54:40.485Z,1.93
2022-08-02T21:57:43.740Z,2.03
2022-08-02T22:00:46.967Z,2.30
2022-08-02T22:03:55.621Z,1.97
2022-08-02T22:06:58.981Z,2.20
2022-08-02T22:10:01.709Z,2.20
2022-08-02T22:13:05.464Z,2.07
2022-08-02T22:16:18.325Z,2.10
2022-08-02T22:19:23.029Z,2.33
2022-08-02T22:22:28.369Z,1.97
2022-08-02T22:25:37.336Z,1.80
2022-08-02T22:28:50.497Z,2.00
2022-08-02T22:31:55.695Z,2.10
2022-08-02T22:34:59.712Z,2.00
2022-08-02T22:38:17.311Z,2.13
2022-08-02T22:41:22.410Z,2.10
2022-08-02T22:44:25.396Z,2.17
2022-08-02T22:47:28.374Z,2.30
2022-08-02T22:50:42.677Z,2.10
2022-08-02T22:53:46.548Z,2.10
2022-08-02T22:56:49.296Z,2.20
2022-08-02T22:59:52.367Z,2.33
2022-08-02T23:02:55.131Z,1.97
2022-08-02T23:05:59.777Z,2.17
2022-08-02T23:09:02.643Z,2.00
2022-08-02T23:12:06.168Z,2.20
2022-08-02T23:15:10.450Z,2.10
2022-08-02T23:18:30.582Z,2.37
2022-08-02T23:21:45.695Z,2.23
2022-08-02T23:24:58.804Z,2.40
2022-08-02T23:28:01.714Z,2.40
2022-08-02T23:31:32.165Z,2.10
2022-08-02T23:34:34.997Z,2.40
2022-08-02T23:37:59.943Z,2.20
2022-08-02T23:41:04.469Z,2.30
2022-08-02T23:44:15.177Z,2.50
2022-08-02T23:47:18.229Z,2.27
2022-08-02T23:50:21.603Z,2.23
2022-08-02T23:53:25.734Z,2.20
2022-08-02T23:56:29.284Z,2.20
2022-08-02T23:59:33.001Z,2.50
